sensor_id;sensor_type;location;lat;lon;timestamp;temperature;humidity
698;DHT22;331;48.414;9.938;2022-08-03T00:01:05;22.90;85.10
698;DHT22;331;48.414;9.938;2022-08-03T00:03:33;22.90;85.20
698;DHT22;331;48.414;9.938;2022-08-03T00:06:00;22.90;85.30
698;DHT22;331;48.414;9.938;2022-08-03T00:08:27;22.80;85.80
698;DHT22;331;48.414;9.938;2022-08-03T00:13:21;22.80;84.80
698;DHT22;331;48.414;9.938;2022-08-03T00:15:48;22.80;85.30
698;DHT22;331;48.414;9.938;2022-08-03T00:18:15;22.70;85.30
698;DHT22;331;48.414;9.938;2022-08-03T00:20:43;22.70;85.30
698;DHT22;331;48.414;9.938;2022-08-03T00:23:10;22.70;85.30
698;DHT22;331;48.414;9.938;2022-08-03T00:25:37;22.60;85.20
698;DHT22;331;48.414;9.938;2022-08-03T00:28:04;22.60;85.20
698;DHT22;331;48.414;9.938;2022-08-03T00:30:31;22.60;85.20
698;DHT22;331;48.414;9.938;2022-08-03T00:32:58;22.50;85.20
698;DHT22;331;48.414;9.938;2022-08-03T00:35:25;22.50;85.20
698;DHT22;331;48.414;9.938;2022-08-03T00:37:53;22.50;85.30
698;DHT22;331;48.414;9.938;2022-08-03T00:40:20;22.40;85.20
698;DHT22;331;48.414;9.938;2022-08-03T00:42:48;22.40;85.30
698;DHT22;331;48.414;9.938;2022-08-03T00:45:15;22.40;85.30
698;DHT22;331;48.414;9.938;2022-08-03T00:47:42;22.40;85.40
698;DHT22;331;48.414;9.938;2022-08-03T00:50:09;22.40;85.50
698;DHT22;331;48.414;9.938;2022-08-03T00:52:36;22.30;85.40
698;DHT22;331;48.414;9.938;2022-08-03T00:55:04;22.30;85.40
698;DHT22;331;48.414;9.938;2022-08-03T00:57:31;22.30;85.40
698;DHT22;331;48.414;9.938;2022-08-03T00:59:59;22.20;85.40
698;DHT22;331;48.414;9.938;2022-08-03T01:04:52;22.20;84.90
698;DHT22;331;48.414;9.938;2022-08-03T01:07:21;22.20;85.60
698;DHT22;331;48.414;9.938;2022-08-03T01:09:52;22.10;85.60
698;DHT22;331;48.414;9.938;2022-08-03T01:12:27;22.10;85.60
698;DHT22;331;48.414;9.938;2022-08-03T01:14:57;22.10;85.50
698;DHT22;331;48.414;9.938;2022-08-03T01:17:27;22.00;85.50
698;DHT22;331;48.414;9.938;2022-08-03T01:19:59;22.00;85.50
698;DHT22;331;48.414;9.938;2022-08-03T01:25:18;22.00;85.70
698;DHT22;331;48.414;9.938;2022-08-03T01:27:53;21.90;85.60
698;DHT22;331;48.414;9.938;2022-08-03T01:30:24;21.90;85.70
698;DHT22;331;48.414;9.938;2022-08-03T01:32:53;21.90;85.70
698;DHT22;331;48.414;9.938;2022-08-03T01:35:24;21.90;85.80
698;DHT22;331;48.414;9.938;2022-08-03T01:37:56;21.80;85.80
698;DHT22;331;48.414;9.938;2022-08-03T01:40:24;21.80;85.90
698;DHT22;331;48.414;9.938;2022-08-03T01:42:51;21.70;85.90
698;DHT22;331;48.414;9.938;2022-08-03T01:45:20;21.70;85.90
698;DHT22;331;48.414;9.938;2022-08-03T01:47:48;21.70;85.90
698;DHT22;331;48.414;9.938;2022-08-03T01:50:16;21.70;85.90
698;DHT22;331;48.414;9.938;2022-08-03T01:52:44;21.60;85.90
698;DHT22;331;48.414;9.938;2022-08-03T01:55:11;21.60;85.90
698;DHT22;331;48.414;9.938;2022-08-03T01:57:39;21.60;85.90
698;DHT22;331;48.414;9.938;2022-08-03T02:00:11;21.50;85.80
698;DHT22;331;48.414;9.938;2022-08-03T02:02:41;21.50;85.90
698;DHT22;331;48.414;9.938;2022-08-03T02:05:10;21.50;85.90
698;DHT22;331;48.414;9.938;2022-08-03T02:07:39;21.50;85.90
698;DHT22;331;48.414;9.938;2022-08-03T02:10:06;21.50;86.00
698;DHT22;331;48.414;9.938;2022-08-03T02:12:35;21.50;86.10
698;DHT22;331;48.414;9.938;2022-08-03T02:15:02;21.40;86.10
698;DHT22;331;48.414;9.938;2022-08-03T02:17:29;21.40;85.50
698;DHT22;331;48.414;9.938;2022-08-03T02:19:58;21.40;86.10
698;DHT22;331;48.414;9.938;2022-08-03T02:22:27;21.30;86.00
698;DHT22;331;48.414;9.938;2022-08-03T02:24:56;21.30;86.10
698;DHT22;331;48.414;9.938;2022-08-03T02:27:23;21.30;86.10
698;DHT22;331;48.414;9.938;2022-08-03T02:29:52;21.30;86.20
698;DHT22;331;48.414;9.938;2022-08-03T02:32:19;21.30;86.10
698;DHT22;331;48.414;9.938;2022-08-03T02:37:14;21.20;85.40
698;DHT22;331;48.414;9.938;2022-08-03T02:39:45;21.20;86.00
698;DHT22;331;48.414;9.938;2022-08-03T02:42:12;21.10;85.30
698;DHT22;331;48.414;9.938;2022-08-03T02:44:40;21.10;86.00
698;DHT22;331;48.414;9.938;2022-08-03T02:47:12;21.10;86.00
698;DHT22;331;48.414;9.938;2022-08-03T02:49:40;21.10;86.10
698;DHT22;331;48.414;9.938;2022-08-03T02:52:08;21.10;86.20
698;DHT22;331;48.414;9.938;2022-08-03T02:54:35;21.00;86.00
698;DHT22;331;48.414;9.938;2022-08-03T02:57:05;21.00;86.00
698;DHT22;331;48.414;9.938;2022-08-03T02:59:32;21.00;86.00
698;DHT22;331;48.414;9.938;2022-08-03T03:01:59;21.00;86.00
698;DHT22;331;48.414;9.938;2022-08-03T03:04:28;20.90;86.00
698;DHT22;331;48.414;9.938;2022-08-03T03:06:56;20.90;86.00
698;DHT22;331;48.414;9.938;2022-08-03T03:09:23;20.90;86.00
698;DHT22;331;48.414;9.938;2022-08-03T03:11:50;20.90;86.10
698;DHT22;331;48.414;9.938;2022-08-03T03:14:18;20.80;86.20
698;DHT22;331;48.414;9.938;2022-08-03T03:16:46;20.80;86.20
698;DHT22;331;48.414;9.938;2022-08-03T03:19:13;20.80;86.30
698;DHT22;331;48.414;9.938;2022-08-03T03:21:41;20.80;86.30
698;DHT22;331;48.414;9.938;2022-08-03T03:24:09;20.70;86.20
698;DHT22;331;48.414;9.938;2022-08-03T03:26:36;20.70;86.30
698;DHT22;331;48.414;9.938;2022-08-03T03:29:03;20.70;86.50
698;DHT22;331;48.414;9.938;2022-08-03T03:31:31;20.70;86.50
698;DHT22;331;48.414;9.938;2022-08-03T03:33:58;20.60;86.40
698;DHT22;331;48.414;9.938;2022-08-03T03:38:52;20.60;85.90
698;DHT22;331;48.414;9.938;2022-08-03T03:41:19;20.60;86.40
698;DHT22;331;48.414;9.938;2022-08-03T03:43:46;20.50;86.40
698;DHT22;331;48.414;9.938;2022-08-03T03:46:14;20.50;86.50
698;DHT22;331;48.414;9.938;2022-08-03T03:48:42;20.50;86.30
698;DHT22;331;48.414;9.938;2022-08-03T03:51:09;20.50;86.50
698;DHT22;331;48.414;9.938;2022-08-03T03:53:36;20.40;85.80
698;DHT22;331;48.414;9.938;2022-08-03T03:56:03;20.40;86.30
698;DHT22;331;48.414;9.938;2022-08-03T03:58:31;20.40;86.40
698;DHT22;331;48.414;9.938;2022-08-03T04:00:58;20.40;86.30
698;DHT22;331;48.414;9.938;2022-08-03T04:03:25;20.40;86.30
698;DHT22;331;48.414;9.938;2022-08-03T04:05:53;20.40;86.40
698;DHT22;331;48.414;9.938;2022-08-03T04:08:37;20.40;86.40
698;DHT22;331;48.414;9.938;2022-08-03T04:13:52;20.30;86.80
698;DHT22;331;48.414;9.938;2022-08-03T04:16:21;20.30;86.90
698;DHT22;331;48.414;9.938;2022-08-03T04:18:51;20.30;86.90
698;DHT22;331;48.414;9.938;2022-08-03T04:21:20;20.30;86.90
698;DHT22;331;48.414;9.938;2022-08-03T04:23:50;20.20;86.80
698;DHT22;331;48.414;9.938;2022-08-03T04:26:19;20.20;86.90
698;DHT22;331;48.414;9.938;2022-08-03T04:28:47;20.20;86.80
698;DHT22;331;48.414;9.938;2022-08-03T04:31:14;20.10;86.80
698;DHT22;331;48.414;9.938;2022-08-03T04:33:42;20.10;86.90
698;DHT22;331;48.414;9.938;2022-08-03T04:36:11;20.10;86.80
698;DHT22;331;48.414;9.938;2022-08-03T04:38:43;20.10;87.00
698;DHT22;331;48.414;9.938;2022-08-03T04:41:12;20.10;87.00
698;DHT22;331;48.414;9.938;2022-08-03T04:43:39;20.00;87.00
698;DHT22;331;48.414;9.938;2022-08-03T04:46:06;20.00;87.10
698;DHT22;331;48.414;9.938;2022-08-03T04:48:33;20.00;87.00
698;DHT22;331;48.414;9.938;2022-08-03T04:51:00;20.00;87.00
698;DHT22;331;48.414;9.938;2022-08-03T04:53:28;20.00;87.20
698;DHT22;331;48.414;9.938;2022-08-03T04:56:03;20.00;87.30
698;DHT22;331;48.414;9.938;2022-08-03T04:58:31;20.00;87.30
698;DHT22;331;48.414;9.938;2022-08-03T05:00:58;19.90;87.40
698;DHT22;331;48.414;9.938;2022-08-03T05:03:25;19.90;87.40
698;DHT22;331;48.414;9.938;2022-08-03T05:05:52;19.90;88.20
698;DHT22;331;48.414;9.938;2022-08-03T05:08:19;19.90;87.40
698;DHT22;331;48.414;9.938;2022-08-03T05:10:46;19.80;87.50
698;DHT22;331;48.414;9.938;2022-08-03T05:13:14;19.80;87.50
698;DHT22;331;48.414;9.938;2022-08-03T05:15:41;19.80;87.50
698;DHT22;331;48.414;9.938;2022-08-03T05:18:08;19.80;87.40
698;DHT22;331;48.414;9.938;2022-08-03T05:20:35;19.80;87.60
698;DHT22;331;48.414;9.938;2022-08-03T05:23:02;19.80;87.50
698;DHT22;331;48.414;9.938;2022-08-03T05:25:28;19.80;87.50
698;DHT22;331;48.414;9.938;2022-08-03T05:27:55;19.70;87.30
698;DHT22;331;48.414;9.938;2022-08-03T05:30:23;19.70;86.40
698;DHT22;331;48.414;9.938;2022-08-03T05:32:50;19.60;87.30
698;DHT22;331;48.414;9.938;2022-08-03T05:35:17;19.50;88.20
698;DHT22;331;48.414;9.938;2022-08-03T05:37:44;19.40;88.50
698;DHT22;331;48.414;9.938;2022-08-03T05:40:11;19.30;88.90
698;DHT22;331;48.414;9.938;2022-08-03T05:42:39;19.30;89.20
698;DHT22;331;48.414;9.938;2022-08-03T05:45:06;19.30;89.30
698;DHT22;331;48.414;9.938;2022-08-03T05:47:40;19.30;89.60
698;DHT22;331;48.414;9.938;2022-08-03T05:50:08;19.30;89.80
698;DHT22;331;48.414;9.938;2022-08-03T05:52:36;19.30;90.00
698;DHT22;331;48.414;9.938;2022-08-03T05:55:03;19.30;90.00
698;DHT22;331;48.414;9.938;2022-08-03T05:57:30;19.30;90.00
698;DHT22;331;48.414;9.938;2022-08-03T05:59:57;19.30;90.00
698;DHT22;331;48.414;9.938;2022-08-03T06:02:24;19.30;90.10
698;DHT22;331;48.414;9.938;2022-08-03T06:04:52;19.40;90.20
698;DHT22;331;48.414;9.938;2022-08-03T06:07:19;19.40;90.20
698;DHT22;331;48.414;9.938;2022-08-03T06:09:46;19.50;90.20
698;DHT22;331;48.414;9.938;2022-08-03T06:12:14;19.50;90.20
698;DHT22;331;48.414;9.938;2022-08-03T06:14:41;19.50;90.10
698;DHT22;331;48.414;9.938;2022-08-03T06:17:08;19.50;90.10
698;DHT22;331;48.414;9.938;2022-08-03T06:19:35;19.50;90.20
698;DHT22;331;48.414;9.938;2022-08-03T06:22:03;19.60;90.30
698;DHT22;331;48.414;9.938;2022-08-03T06:24:30;19.60;90.30
698;DHT22;331;48.414;9.938;2022-08-03T06:26:57;19.60;90.30
698;DHT22;331;48.414;9.938;2022-08-03T06:29:24;19.60;90.30
698;DHT22;331;48.414;9.938;2022-08-03T06:31:50;19.70;90.30
698;DHT22;331;48.414;9.938;2022-08-03T06:34:17;19.70;90.40
698;DHT22;331;48.414;9.938;2022-08-03T06:36:44;19.70;90.30
698;DHT22;331;48.414;9.938;2022-08-03T06:39:14;19.80;90.40
698;DHT22;331;48.414;9.938;2022-08-03T06:41:41;19.80;90.30
698;DHT22;331;48.414;9.938;2022-08-03T06:44:08;19.80;90.30
698;DHT22;331;48.414;9.938;2022-08-03T06:46:35;19.80;90.30
698;DHT22;331;48.414;9.938;2022-08-03T06:49:02;19.80;90.30
698;DHT22;331;48.414;9.938;2022-08-03T06:51:29;19.80;90.40
698;DHT22;331;48.414;9.938;2022-08-03T06:53:56;19.80;90.70
698;DHT22;331;48.414;9.938;2022-08-03T06:56:24;19.80;90.40
698;DHT22;331;48.414;9.938;2022-08-03T06:58:51;20.00;91.00
698;DHT22;331;48.414;9.938;2022-08-03T07:01:18;20.20;92.00
698;DHT22;331;48.414;9.938;2022-08-03T07:03:44;20.30;92.10
698;DHT22;331;48.414;9.938;2022-08-03T07:06:11;20.30;91.80
698;DHT22;331;48.414;9.938;2022-08-03T07:08:38;20.20;91.70
698;DHT22;331;48.414;9.938;2022-08-03T07:11:05;20.20;91.60
698;DHT22;331;48.414;9.938;2022-08-03T07:13:33;20.20;91.50
698;DHT22;331;48.414;9.938;2022-08-03T07:16:00;20.20;91.40
698;DHT22;331;48.414;9.938;2022-08-03T07:18:27;20.20;91.40
698;DHT22;331;48.414;9.938;2022-08-03T07:20:54;20.20;91.40
698;DHT22;331;48.414;9.938;2022-08-03T07:23:21;20.20;91.30
698;DHT22;331;48.414;9.938;2022-08-03T07:25:48;20.20;91.30
698;DHT22;331;48.414;9.938;2022-08-03T07:28:15;20.30;91.30
698;DHT22;331;48.414;9.938;2022-08-03T07:30:43;20.30;91.30
698;DHT22;331;48.414;9.938;2022-08-03T07:33:10;20.30;91.20
698;DHT22;331;48.414;9.938;2022-08-03T07:35:37;20.30;91.20
698;DHT22;331;48.414;9.938;2022-08-03T07:38:03;20.30;91.20
698;DHT22;331;48.414;9.938;2022-08-03T07:40:30;20.30;91.30
698;DHT22;331;48.414;9.938;2022-08-03T07:42:57;20.40;91.30
698;DHT22;331;48.414;9.938;2022-08-03T07:45:24;20.40;91.20
698;DHT22;331;48.414;9.938;2022-08-03T07:47:52;20.40;91.20
698;DHT22;331;48.414;9.938;2022-08-03T07:50:19;20.40;91.20
698;DHT22;331;48.414;9.938;2022-08-03T07:52:46;20.40;91.20
698;DHT22;331;48.414;9.938;2022-08-03T07:55:17;20.50;91.20
698;DHT22;331;48.414;9.938;2022-08-03T07:57:44;20.50;91.20
698;DHT22;331;48.414;9.938;2022-08-03T08:00:13;20.50;91.10
698;DHT22;331;48.414;9.938;2022-08-03T08:02:40;20.50;91.10
698;DHT22;331;48.414;9.938;2022-08-03T08:05:08;20.50;91.10
698;DHT22;331;48.414;9.938;2022-08-03T08:07:36;20.50;91.10
698;DHT22;331;48.414;9.938;2022-08-03T08:10:03;20.50;91.10
698;DHT22;331;48.414;9.938;2022-08-03T08:12:30;20.60;91.10
698;DHT22;331;48.414;9.938;2022-08-03T08:14:57;20.60;91.00
698;DHT22;331;48.414;9.938;2022-08-03T08:17:24;20.60;91.00
698;DHT22;331;48.414;9.938;2022-08-03T08:19:51;20.60;91.00
698;DHT22;331;48.414;9.938;2022-08-03T08:22:19;20.60;91.00
698;DHT22;331;48.414;9.938;2022-08-03T08:24:46;20.60;90.90
698;DHT22;331;48.414;9.938;2022-08-03T08:27:13;20.60;90.90
698;DHT22;331;48.414;9.938;2022-08-03T08:29:40;20.60;90.90
698;DHT22;331;48.414;9.938;2022-08-03T08:32:07;20.60;90.90
698;DHT22;331;48.414;9.938;2022-08-03T08:34:35;20.60;90.90
698;DHT22;331;48.414;9.938;2022-08-03T08:37:02;20.60;90.90
698;DHT22;331;48.414;9.938;2022-08-03T08:39:30;20.70;90.90
698;DHT22;331;48.414;9.938;2022-08-03T08:41:57;20.70;90.90
698;DHT22;331;48.414;9.938;2022-08-03T08:44:24;20.70;90.90
698;DHT22;331;48.414;9.938;2022-08-03T08:46:51;20.70;90.90
698;DHT22;331;48.414;9.938;2022-08-03T08:49:19;20.70;90.90
698;DHT22;331;48.414;9.938;2022-08-03T08:51:48;20.70;90.90
698;DHT22;331;48.414;9.938;2022-08-03T08:54:17;20.80;91.00
698;DHT22;331;48.414;9.938;2022-08-03T08:56:46;20.80;90.90
698;DHT22;331;48.414;9.938;2022-08-03T08:59:13;20.80;90.90
698;DHT22;331;48.414;9.938;2022-08-03T09:01:40;20.80;91.00
698;DHT22;331;48.414;9.938;2022-08-03T09:04:07;20.80;90.90
698;DHT22;331;48.414;9.938;2022-08-03T09:06:34;20.90;90.90
698;DHT22;331;48.414;9.938;2022-08-03T09:09:01;20.90;90.90
698;DHT22;331;48.414;9.938;2022-08-03T09:11:27;20.90;90.90
698;DHT22;331;48.414;9.938;2022-08-03T09:13:56;20.90;90.90
698;DHT22;331;48.414;9.938;2022-08-03T09:16:24;20.90;90.80
698;DHT22;331;48.414;9.938;2022-08-03T09:18:51;20.90;90.80
698;DHT22;331;48.414;9.938;2022-08-03T09:21:20;20.90;90.80
698;DHT22;331;48.414;9.938;2022-08-03T09:23:47;20.90;90.80
698;DHT22;331;48.414;9.938;2022-08-03T09:26:21;21.00;90.80
698;DHT22;331;48.414;9.938;2022-08-03T09:28:56;21.00;90.80
698;DHT22;331;48.414;9.938;2022-08-03T09:31:30;21.00;90.80
698;DHT22;331;48.414;9.938;2022-08-03T09:33:57;21.00;90.80
698;DHT22;331;48.414;9.938;2022-08-03T09:36:33;21.00;90.80
698;DHT22;331;48.414;9.938;2022-08-03T09:39:00;21.00;90.80
698;DHT22;331;48.414;9.938;2022-08-03T09:41:30;21.10;90.80
698;DHT22;331;48.414;9.938;2022-08-03T09:43:58;21.10;90.80
698;DHT22;331;48.414;9.938;2022-08-03T09:46:25;21.10;90.80
698;DHT22;331;48.414;9.938;2022-08-03T09:49:08;21.10;90.80
698;DHT22;331;48.414;9.938;2022-08-03T09:51:36;21.10;90.70
698;DHT22;331;48.414;9.938;2022-08-03T09:54:03;21.20;90.80
698;DHT22;331;48.414;9.938;2022-08-03T09:56:37;21.10;90.70
698;DHT22;331;48.414;9.938;2022-08-03T09:59:05;21.20;90.80
698;DHT22;331;48.414;9.938;2022-08-03T10:01:34;21.20;90.80
698;DHT22;331;48.414;9.938;2022-08-03T10:04:01;21.20;90.80
698;DHT22;331;48.414;9.938;2022-08-03T10:06:28;21.20;90.70
698;DHT22;331;48.414;9.938;2022-08-03T10:09:03;21.30;90.80
698;DHT22;331;48.414;9.938;2022-08-03T10:11:31;21.30;90.70
698;DHT22;331;48.414;9.938;2022-08-03T10:13:59;21.30;90.70
698;DHT22;331;48.414;9.938;2022-08-03T10:16:30;21.30;90.60
698;DHT22;331;48.414;9.938;2022-08-03T10:18:58;21.30;90.50
698;DHT22;331;48.414;9.938;2022-08-03T10:21:25;21.30;90.50
698;DHT22;331;48.414;9.938;2022-08-03T10:23:55;21.30;90.50
698;DHT22;331;48.414;9.938;2022-08-03T10:26:23;21.30;90.50
698;DHT22;331;48.414;9.938;2022-08-03T10:28:52;21.40;90.60
698;DHT22;331;48.414;9.938;2022-08-03T10:31:19;21.40;90.60
698;DHT22;331;48.414;9.938;2022-08-03T10:33:49;21.40;90.60
698;DHT22;331;48.414;9.938;2022-08-03T10:36:17;21.40;90.60
698;DHT22;331;48.414;9.938;2022-08-03T10:38:46;21.40;90.60
698;DHT22;331;48.414;9.938;2022-08-03T10:41:17;21.40;90.60
698;DHT22;331;48.414;9.938;2022-08-03T10:43:46;21.40;90.60
698;DHT22;331;48.414;9.938;2022-08-03T10:46:16;21.50;90.60
698;DHT22;331;48.414;9.938;2022-08-03T10:48:44;21.50;90.70
698;DHT22;331;48.414;9.938;2022-08-03T10:51:13;21.50;90.70
698;DHT22;331;48.414;9.938;2022-08-03T10:53:40;21.60;90.70
698;DHT22;331;48.414;9.938;2022-08-03T10:59:07;21.60;90.70
698;DHT22;331;48.414;9.938;2022-08-03T11:01:48;21.60;91.00
698;DHT22;331;48.414;9.938;2022-08-03T11:04:16;21.60;90.60
698;DHT22;331;48.414;9.938;2022-08-03T11:06:45;21.70;90.50
698;DHT22;331;48.414;9.938;2022-08-03T11:09:13;21.70;90.40
698;DHT22;331;48.414;9.938;2022-08-03T11:11:41;21.70;90.30
698;DHT22;331;48.414;9.938;2022-08-03T11:14:09;21.70;90.40
698;DHT22;331;48.414;9.938;2022-08-03T11:16:37;21.70;90.40
698;DHT22;331;48.414;9.938;2022-08-03T11:19:05;21.70;90.30
698;DHT22;331;48.414;9.938;2022-08-03T11:27:16;21.80;90.00
698;DHT22;331;48.414;9.938;2022-08-03T11:29:52;21.80;90.00
698;DHT22;331;48.414;9.938;2022-08-03T11:35:07;21.90;90.00
698;DHT22;331;48.414;9.938;2022-08-03T11:37:35;21.90;89.80
698;DHT22;331;48.414;9.938;2022-08-03T11:40:02;21.90;89.70
698;DHT22;331;48.414;9.938;2022-08-03T11:42:40;21.90;89.40
698;DHT22;331;48.414;9.938;2022-08-03T11:45:09;21.90;89.50
698;DHT22;331;48.414;9.938;2022-08-03T11:47:37;22.00;89.80
698;DHT22;331;48.414;9.938;2022-08-03T11:50:05;22.00;89.90
698;DHT22;331;48.414;9.938;2022-08-03T11:52:36;22.00;90.00
698;DHT22;331;48.414;9.938;2022-08-03T11:55:07;22.00;90.00
698;DHT22;331;48.414;9.938;2022-08-03T11:57:34;22.10;90.00
698;DHT22;331;48.414;9.938;2022-08-03T12:00:03;22.10;89.40
698;DHT22;331;48.414;9.938;2022-08-03T12:02:52;22.20;88.90
698;DHT22;331;48.414;9.938;2022-08-03T12:05:19;22.20;89.40
698;DHT22;331;48.414;9.938;2022-08-03T12:07:46;22.20;89.40
698;DHT22;331;48.414;9.938;2022-08-03T12:10:13;22.20;88.90
698;DHT22;331;48.414;9.938;2022-08-03T12:12:40;22.30;89.10
698;DHT22;331;48.414;9.938;2022-08-03T12:15:09;22.30;89.90
698;DHT22;331;48.414;9.938;2022-08-03T12:17:37;22.30;89.50
698;DHT22;331;48.414;9.938;2022-08-03T12:20:05;22.40;89.60
698;DHT22;331;48.414;9.938;2022-08-03T12:22:32;22.40;89.20
698;DHT22;331;48.414;9.938;2022-08-03T12:25:00;22.40;89.20
698;DHT22;331;48.414;9.938;2022-08-03T12:27:27;22.40;88.60
698;DHT22;331;48.414;9.938;2022-08-03T12:29:54;22.50;88.60
698;DHT22;331;48.414;9.938;2022-08-03T12:32:23;22.50;88.40
698;DHT22;331;48.414;9.938;2022-08-03T12:34:51;22.50;88.50
698;DHT22;331;48.414;9.938;2022-08-03T12:37:18;22.80;84.30
698;DHT22;331;48.414;9.938;2022-08-03T12:39:48;23.00;83.60
698;DHT22;331;48.414;9.938;2022-08-03T12:42:15;23.00;84.40
698;DHT22;331;48.414;9.938;2022-08-03T12:44:42;23.00;85.00
698;DHT22;331;48.414;9.938;2022-08-03T12:47:10;23.00;85.60
698;DHT22;331;48.414;9.938;2022-08-03T12:49:45;23.10;85.90
698;DHT22;331;48.414;9.938;2022-08-03T12:52:12;23.10;85.70
698;DHT22;331;48.414;9.938;2022-08-03T12:54:38;23.10;86.10
698;DHT22;331;48.414;9.938;2022-08-03T12:57:06;23.20;86.10
698;DHT22;331;48.414;9.938;2022-08-03T12:59:33;23.20;87.10
698;DHT22;331;48.414;9.938;2022-08-03T13:02:00;23.20;86.80
698;DHT22;331;48.414;9.938;2022-08-03T13:04:28;23.20;87.10
698;DHT22;331;48.414;9.938;2022-08-03T13:06:57;23.30;87.10
698;DHT22;331;48.414;9.938;2022-08-03T13:09:24;23.40;87.30
698;DHT22;331;48.414;9.938;2022-08-03T13:12:04;23.40;86.80
698;DHT22;331;48.414;9.938;2022-08-03T13:14:31;23.50;87.30
698;DHT22;331;48.414;9.938;2022-08-03T13:16:58;23.50;87.50
698;DHT22;331;48.414;9.938;2022-08-03T13:19:25;23.60;87.50
698;DHT22;331;48.414;9.938;2022-08-03T13:21:51;23.60;86.90
698;DHT22;331;48.414;9.938;2022-08-03T13:24:20;23.70;87.30
698;DHT22;331;48.414;9.938;2022-08-03T13:26:47;23.80;87.00
698;DHT22;331;48.414;9.938;2022-08-03T13:29:13;23.80;87.00
698;DHT22;331;48.414;9.938;2022-08-03T13:31:42;23.90;87.40
698;DHT22;331;48.414;9.938;2022-08-03T13:34:09;23.90;88.00
698;DHT22;331;48.414;9.938;2022-08-03T13:36:36;24.00;87.80
698;DHT22;331;48.414;9.938;2022-08-03T13:39:03;24.10;87.30
698;DHT22;331;48.414;9.938;2022-08-03T13:41:31;24.10;87.30
698;DHT22;331;48.414;9.938;2022-08-03T13:43:58;24.20;87.00
698;DHT22;331;48.414;9.938;2022-08-03T13:46:25;24.30;86.90
698;DHT22;331;48.414;9.938;2022-08-03T13:48:52;24.40;86.90
698;DHT22;331;48.414;9.938;2022-08-03T13:51:19;24.40;87.00
698;DHT22;331;48.414;9.938;2022-08-03T13:53:45;24.50;84.90
698;DHT22;331;48.414;9.938;2022-08-03T13:56:12;24.50;85.40
698;DHT22;331;48.414;9.938;2022-08-03T13:58:40;24.60;85.20
698;DHT22;331;48.414;9.938;2022-08-03T14:01:07;24.60;84.90
698;DHT22;331;48.414;9.938;2022-08-03T14:03:34;24.70;84.80
698;DHT22;331;48.414;9.938;2022-08-03T14:06:01;24.70;85.20
698;DHT22;331;48.414;9.938;2022-08-03T14:08:28;24.80;85.10
698;DHT22;331;48.414;9.938;2022-08-03T14:10:55;24.90;84.10
698;DHT22;331;48.414;9.938;2022-08-03T14:13:22;25.00;84.40
698;DHT22;331;48.414;9.938;2022-08-03T14:15:50;25.00;85.20
698;DHT22;331;48.414;9.938;2022-08-03T14:18:17;25.00;84.60
698;DHT22;331;48.414;9.938;2022-08-03T14:20:45;25.10;84.90
698;DHT22;331;48.414;9.938;2022-08-03T14:23:12;25.20;84.40
698;DHT22;331;48.414;9.938;2022-08-03T14:28:06;25.30;84.50
698;DHT22;331;48.414;9.938;2022-08-03T14:30:33;25.30;85.20
698;DHT22;331;48.414;9.938;2022-08-03T14:33:01;25.40;85.70
698;DHT22;331;48.414;9.938;2022-08-03T14:35:28;25.40;86.30
698;DHT22;331;48.414;9.938;2022-08-03T14:37:54;25.50;86.70
698;DHT22;331;48.414;9.938;2022-08-03T14:40:21;25.50;86.00
698;DHT22;331;48.414;9.938;2022-08-03T14:42:48;25.60;84.60
698;DHT22;331;48.414;9.938;2022-08-03T14:45:15;25.60;84.90
698;DHT22;331;48.414;9.938;2022-08-03T14:47:42;25.70;83.90
698;DHT22;331;48.414;9.938;2022-08-03T14:50:10;25.80;83.60
698;DHT22;331;48.414;9.938;2022-08-03T14:52:37;25.90;82.80
698;DHT22;331;48.414;9.938;2022-08-03T14:55:04;25.90;83.20
698;DHT22;331;48.414;9.938;2022-08-03T14:57:31;26.00;83.50
698;DHT22;331;48.414;9.938;2022-08-03T14:59:58;26.00;83.30
698;DHT22;331;48.414;9.938;2022-08-03T15:02:24;26.10;83.60
698;DHT22;331;48.414;9.938;2022-08-03T15:04:52;26.10;82.60
698;DHT22;331;48.414;9.938;2022-08-03T15:07:20;26.20;83.00
698;DHT22;331;48.414;9.938;2022-08-03T15:09:47;26.30;83.90
698;DHT22;331;48.414;9.938;2022-08-03T15:12:14;26.30;84.20
698;DHT22;331;48.414;9.938;2022-08-03T15:14:41;26.30;84.30
698;DHT22;331;48.414;9.938;2022-08-03T15:17:08;26.40;84.00
698;DHT22;331;48.414;9.938;2022-08-03T15:19:34;26.40;83.40
698;DHT22;331;48.414;9.938;2022-08-03T15:22:01;26.60;83.20
698;DHT22;331;48.414;9.938;2022-08-03T15:24:30;26.60;82.70
698;DHT22;331;48.414;9.938;2022-08-03T15:26:56;26.60;82.30
698;DHT22;331;48.414;9.938;2022-08-03T15:29:23;26.70;82.00
698;DHT22;331;48.414;9.938;2022-08-03T15:31:50;26.80;82.70
698;DHT22;331;48.414;9.938;2022-08-03T15:34:17;26.80;81.60
698;DHT22;331;48.414;9.938;2022-08-03T15:36:44;26.80;82.30
698;DHT22;331;48.414;9.938;2022-08-03T15:39:11;26.80;82.80
698;DHT22;331;48.414;9.938;2022-08-03T15:41:39;26.90;82.60
698;DHT22;331;48.414;9.938;2022-08-03T15:44:06;27.00;83.00
698;DHT22;331;48.414;9.938;2022-08-03T15:46:33;27.00;83.40
698;DHT22;331;48.414;9.938;2022-08-03T15:49:00;27.00;84.00
698;DHT22;331;48.414;9.938;2022-08-03T15:51:27;27.10;83.70
698;DHT22;331;48.414;9.938;2022-08-03T15:53:54;27.10;84.00
698;DHT22;331;48.414;9.938;2022-08-03T15:56:21;27.20;84.20
698;DHT22;331;48.414;9.938;2022-08-03T15:58:49;27.20;83.90
698;DHT22;331;48.414;9.938;2022-08-03T16:01:16;27.30;83.90
698;DHT22;331;48.414;9.938;2022-08-03T16:03:44;27.30;84.10
698;DHT22;331;48.414;9.938;2022-08-03T16:06:11;27.40;84.10
698;DHT22;331;48.414;9.938;2022-08-03T16:08:38;27.40;83.70
698;DHT22;331;48.414;9.938;2022-08-03T16:11:05;27.50;83.60
698;DHT22;331;48.414;9.938;2022-08-03T16:13:32;27.50;84.80
698;DHT22;331;48.414;9.938;2022-08-03T16:16:00;27.60;84.50
698;DHT22;331;48.414;9.938;2022-08-03T16:18:28;27.60;84.90
698;DHT22;331;48.414;9.938;2022-08-03T16:20:55;27.60;85.30
698;DHT22;331;48.414;9.938;2022-08-03T16:23:22;27.70;85.00
698;DHT22;331;48.414;9.938;2022-08-03T16:25:49;27.70;85.20
698;DHT22;331;48.414;9.938;2022-08-03T16:28:16;27.80;85.40
698;DHT22;331;48.414;9.938;2022-08-03T16:30:44;27.80;85.20
698;DHT22;331;48.414;9.938;2022-08-03T16:33:12;27.80;84.80
698;DHT22;331;48.414;9.938;2022-08-03T16:35:39;27.90;84.40
698;DHT22;331;48.414;9.938;2022-08-03T16:38:06;27.90;84.10
698;DHT22;331;48.414;9.938;2022-08-03T16:40:33;28.00;84.60
698;DHT22;331;48.414;9.938;2022-08-03T16:43:00;28.00;84.40
698;DHT22;331;48.414;9.938;2022-08-03T16:45:27;28.00;84.70
698;DHT22;331;48.414;9.938;2022-08-03T16:47:54;28.00;84.80
698;DHT22;331;48.414;9.938;2022-08-03T16:52:49;28.10;85.90
698;DHT22;331;48.414;9.938;2022-08-03T16:55:16;28.10;84.80
698;DHT22;331;48.414;9.938;2022-08-03T16:57:43;28.10;84.70
698;DHT22;331;48.414;9.938;2022-08-03T17:00:10;28.20;84.60
698;DHT22;331;48.414;9.938;2022-08-03T17:02:39;28.20;84.30
698;DHT22;331;48.414;9.938;2022-08-03T17:05:07;28.20;84.30
698;DHT22;331;48.414;9.938;2022-08-03T17:07:34;28.20;83.90
698;DHT22;331;48.414;9.938;2022-08-03T17:10:02;28.30;83.80